Time;durP1;ratioP1;P1;durP2;ratioP2;P2;SDS_P1;SDS_P2;PMS_P1;PMS_P2;Temp;Humidity;BMP_temperature;BMP_pressure;BME280_temperature;BME280_humidity;BME280_pressure;Samples;Min_cycle;Max_cycle;Signal;HPM_P1;HPM_P2
2024/02/06 00:01:57;;;;;;;7.10;6.90;;;20.90;55.70;;;;;;5035172;28;20465;-60
2024/02/06 00:04:24;;;;;;;8.60;8.37;;;20.90;55.70;;;;;;5035220;28;20449;-61
2024/02/06 00:06:51;;;;;;;7.13;6.93;;;20.90;55.80;;;;;;5020933;28;20513;-63
2024/02/06 00:09:18;;;;;;;8.07;7.77;;;20.90;55.70;;;;;;5015469;28;20477;-63
2024/02/06 00:11:45;;;;;;;7.43;7.23;;;20.80;55.60;;;;;;5015339;28;20497;-63
2024/02/06 00:14:11;;;;;;;7.80;7.60;;;20.80;55.60;;;;;;5017149;28;20465;-58
2024/02/06 00:16:39;;;;;;;7.63;7.47;;;20.80;55.80;;;;;;5031517;28;20944;-62
2024/02/06 00:19:07;;;;;;;8.00;7.50;;;20.80;55.80;;;;;;5035091;28;20484;-60
2024/02/06 00:21:34;;;;;;;7.53;7.33;;;20.80;55.80;;;;;;5034805;28;20493;-59
2024/02/06 00:24:01;;;;;;;7.80;7.50;;;20.80;55.70;;;;;;5032237;28;20474;-62
2024/02/06 00:26:28;;;;;;;7.60;7.40;;;20.80;55.80;;;;;;5015140;28;20452;-61
2024/02/06 00:28:55;;;;;;;7.63;7.43;;;20.80;55.80;;;;;;5015239;28;20438;-63
2024/02/06 00:31:22;;;;;;;7.20;7.10;;;20.80;55.80;;;;;;5014919;28;20501;-62
2024/02/06 00:33:49;;;;;;;8.20;8.00;;;20.80;55.80;;;;;;5015065;28;20454;-62
2024/02/06 00:36:17;;;;;;;7.53;7.33;;;20.80;55.90;;;;;;5034734;28;20476;-60
2024/02/06 00:38:46;;;;;;;7.67;7.37;;;20.80;55.90;;;;;;5034687;28;20691;-61
2024/02/06 00:41:13;;;;;;;7.80;7.60;;;20.80;55.90;;;;;;5034438;28;20885;-61
2024/02/06 00:43:40;;;;;;;7.50;7.30;;;20.80;56.00;;;;;;5034414;28;20476;-63
2024/02/06 00:46:07;;;;;;;7.17;7.07;;;20.80;56.00;;;;;;5015233;28;20473;-61
2024/02/06 00:48:34;;;;;;;7.40;6.90;;;20.80;56.00;;;;;;5014759;28;20517;-61
2024/02/06 00:51:01;;;;;;;7.27;6.97;;;20.80;56.20;;;;;;5014516;28;20466;-62
2024/02/06 00:53:29;;;;;;;7.80;7.60;;;20.80;55.80;;;;;;5024944;28;20480;-61
2024/02/06 00:55:56;;;;;;;8.23;8.03;;;20.80;55.90;;;;;;5034154;28;20476;-60
2024/02/06 00:58:23;;;;;;;7.40;7.30;;;20.70;55.90;;;;;;5034499;28;20473;-61
2024/02/06 01:00:50;;;;;;;7.80;7.50;;;20.70;55.90;;;;;;5034095;28;20512;-62
2024/02/06 01:03:17;;;;;;;7.60;7.40;;;20.70;55.80;;;;;;5024804;28;20446;-62
2024/02/06 01:05:44;;;;;;;7.93;7.73;;;20.70;55.80;;;;;;5014016;28;20442;-62
2024/02/06 01:08:11;;;;;;;7.87;7.67;;;20.70;55.90;;;;;;5014172;28;20516;-62
2024/02/06 01:10:39;;;;;;;7.50;7.40;;;20.70;55.90;;;;;;5014015;28;20521;-62
2024/02/06 01:13:06;;;;;;;9.00;8.70;;;20.70;55.80;;;;;;5021181;28;20885;-60
2024/02/06 01:15:33;;;;;;;7.20;7.10;;;20.70;55.80;;;;;;5034037;28;20496;-60
2024/02/06 01:18:00;;;;;;;7.93;7.73;;;20.70;55.90;;;;;;5019207;28;20430;-62
2024/02/06 01:20:27;;;;;;;8.20;8.00;;;20.70;55.90;;;;;;5013953;28;20497;-63
2024/02/06 01:22:54;;;;;;;7.77;7.57;;;20.70;55.90;;;;;;5018969;28;20510;-62
2024/02/06 01:25:21;;;;;;;7.80;7.60;;;20.70;55.80;;;;;;5033693;28;20441;-62
2024/02/06 01:27:49;;;;;;;7.90;7.70;;;20.70;56.00;;;;;;5033785;28;20516;-62
2024/02/06 01:30:16;;;;;;;8.07;7.77;;;20.70;56.00;;;;;;5033485;28;20853;-62
2024/02/06 01:32:43;;;;;;;8.00;7.70;;;20.70;55.90;;;;;;5029928;28;20500;-63
2024/02/06 01:35:12;;;;;;;8.03;7.73;;;20.70;55.90;;;;;;5013866;28;20477;-60
2024/02/06 01:37:39;;;;;;;8.07;7.77;;;20.60;55.80;;;;;;5013686;28;20442;-62
2024/02/06 01:40:07;;;;;;;7.60;7.40;;;20.60;55.80;;;;;;5013666;28;20481;-62
2024/02/06 01:42:34;;;;;;;8.50;8.20;;;20.70;55.90;;;;;;5015288;28;20489;-63
2024/02/06 01:45:02;;;;;;;7.83;7.63;;;20.60;55.80;;;;;;5033349;28;20477;-62
2024/02/06 01:47:29;;;;;;;8.50;8.17;;;20.60;55.70;;;;;;5033539;28;20512;-62
2024/02/06 01:49:57;;;;;;;8.23;8.03;;;20.60;55.90;;;;;;5033212;28;20473;-62
2024/02/06 01:52:25;;;;;;;8.63;8.43;;;20.60;55.80;;;;;;5032460;28;20493;-63
2024/02/06 01:54:52;;;;;;;10.10;9.70;;;20.60;55.80;;;;;;5013523;28;20446;-62
2024/02/06 01:57:19;;;;;;;7.77;7.53;;;20.60;55.90;;;;;;5013472;28;20496;-62
2024/02/06 01:59:46;;;;;;;7.93;7.73;;;20.60;55.90;;;;;;5013366;28;20448;-58
2024/02/06 02:02:15;;;;;;;7.33;7.17;;;20.60;55.90;;;;;;5013179;28;20984;-62
2024/02/06 02:04:42;;;;;;;7.60;7.40;;;20.70;56.00;;;;;;5031849;28;20476;-61
2024/02/06 02:07:10;;;;;;;7.60;7.40;;;20.60;55.90;;;;;;5032681;28;20967;-62
2024/02/06 02:09:37;;;;;;;8.30;8.03;;;20.60;55.90;;;;;;5032823;28;20487;-62
2024/02/06 02:12:04;;;;;;;7.83;7.63;;;20.60;55.90;;;;;;5032657;28;20501;-62
2024/02/06 02:14:31;;;;;;;8.13;7.90;;;20.60;55.80;;;;;;5029810;28;20437;-62
2024/02/06 02:16:58;;;;;;;7.90;7.60;;;20.60;55.80;;;;;;5012489;28;20469;-63
2024/02/06 02:19:26;;;;;;;8.40;8.00;;;20.60;55.90;;;;;;5012709;28;20470;-61
2024/02/06 02:21:55;;;;;;;8.00;7.57;;;20.60;56.00;;;;;;5012802;28;20891;-63
2024/02/06 02:24:22;;;;;;;8.50;8.23;;;20.60;55.90;;;;;;5026016;28;20487;-63
2024/02/06 02:26:49;;;;;;;7.90;7.70;;;20.60;56.00;;;;;;5032524;28;20576;-62
2024/02/06 02:29:17;;;;;;;8.00;7.70;;;20.60;56.00;;;;;;5032359;28;20521;-63
2024/02/06 02:31:46;;;;;;;7.70;7.50;;;20.60;56.00;;;;;;5032369;28;20465;-62
2024/02/06 02:34:13;;;;;;;7.73;7.53;;;20.60;56.00;;;;;;5018764;28;20478;-62
2024/02/06 02:36:40;;;;;;;7.97;7.77;;;20.60;56.00;;;;;;5012528;28;20478;-62
2024/02/06 02:39:09;;;;;;;7.90;7.70;;;20.60;56.10;;;;;;5012527;28;20474;-63
2024/02/06 02:41:36;;;;;;;8.30;8.00;;;20.60;56.00;;;;;;5012515;28;20558;-62
2024/02/06 02:44:03;;;;;;;7.90;7.70;;;20.60;56.00;;;;;;5024389;28;20593;-62
2024/02/06 02:46:30;;;;;;;8.00;7.80;;;20.60;56.10;;;;;;5032215;28;20495;-62
2024/02/06 02:48:57;;;;;;;7.80;7.60;;;20.60;56.10;;;;;;5032017;28;20520;-62
2024/02/06 02:51:23;;;;;;;7.70;7.50;;;20.60;56.10;;;;;;5031909;28;20559;-62
2024/02/06 02:53:50;;;;;;;7.80;7.60;;;20.60;56.10;;;;;;5022031;28;20478;-63
2024/02/06 02:56:19;;;;;;;8.40;8.10;;;20.60;56.10;;;;;;5012270;28;20500;-62
2024/02/06 02:58:46;;;;;;;8.30;7.80;;;20.60;56.10;;;;;;5012280;28;20480;-62
2024/02/06 03:01:13;;;;;;;7.83;7.63;;;20.60;56.00;;;;;;5013971;28;20981;-59
2024/02/06 03:03:40;;;;;;;9.07;8.77;;;20.60;56.00;;;;;;5032131;28;20851;-63
2024/02/06 03:06:07;;;;;;;7.77;7.47;;;20.60;56.10;;;;;;5031887;28;20475;-63
2024/02/06 03:08:34;;;;;;;7.60;7.40;;;20.60;56.00;;;;;;5031843;28;21020;-63
2024/02/06 03:11:01;;;;;;;7.67;7.50;;;20.60;56.00;;;;;;5031490;28;20853;-62
2024/02/06 03:13:29;;;;;;;7.80;7.60;;;20.60;56.10;;;;;;5031866;28;20445;-62
2024/02/06 03:15:56;;;;;;;7.43;7.23;;;20.50;56.00;;;;;;5031794;28;20870;-62
2024/02/06 03:18:23;;;;;;;8.00;7.80;;;20.50;56.00;;;;;;5031871;28;20808;-62
2024/02/06 03:20:50;;;;;;;7.90;7.70;;;20.50;56.00;;;;;;5031688;28;20471;-62
2024/02/06 03:23:19;;;;;;;8.20;8.00;;;20.50;55.90;;;;;;5031158;28;20997;-61
2024/02/06 03:25:46;;;;;;;8.10;7.90;;;20.60;56.00;;;;;;5031738;28;21020;-62
2024/02/06 03:28:12;;;;;;;8.17;7.77;;;20.50;56.00;;;;;;5031913;28;20512;-60
2024/02/06 03:30:42;;;;;;;7.20;7.10;;;20.50;56.00;;;;;;5027707;28;20482;-63
2024/02/06 03:33:09;;;;;;;8.07;7.87;;;20.50;56.00;;;;;;5018490;28;20504;-62
2024/02/06 03:35:36;;;;;;;8.67;8.27;;;20.50;56.00;;;;;;5018316;28;20915;-61
2024/02/06 03:38:03;;;;;;;7.83;7.57;;;20.50;56.00;;;;;;5018280;28;20469;-63
2024/02/06 03:40:30;;;;;;;7.97;7.70;;;20.50;56.00;;;;;;5026945;28;20493;-62
2024/02/06 03:42:57;;;;;;;8.70;8.40;;;20.50;56.10;;;;;;5038187;28;20483;-62
2024/02/06 03:45:23;;;;;;;8.23;7.93;;;20.50;56.10;;;;;;5038070;28;20514;-61
2024/02/06 03:47:52;;;;;;;7.60;7.40;;;20.60;56.20;;;;;;5038025;28;20480;-62
2024/02/06 03:50:19;;;;;;;7.57;7.43;;;20.50;56.50;;;;;;5030929;28;20949;-62
2024/02/06 03:52:46;;;;;;;8.17;7.97;;;20.50;55.90;;;;;;5018276;28;20469;-59
2024/02/06 03:55:13;;;;;;;7.60;7.40;;;20.50;56.00;;;;;;5018242;28;20473;-61
2024/02/06 03:57:40;;;;;;;7.90;7.70;;;20.50;56.00;;;;;;5018252;28;20473;-63
2024/02/06 04:00:08;;;;;;;7.50;7.30;;;20.50;55.90;;;;;;5022836;28;20769;-62
2024/02/06 04:02:35;;;;;;;8.10;7.90;;;20.50;55.90;;;;;;5038144;28;20680;-62
2024/02/06 04:05:05;;;;;;;9.07;8.70;;;20.50;55.90;;;;;;5037889;28;20463;-60
2024/02/06 04:07:31;;;;;;;8.60;8.40;;;20.50;56.10;;;;;;5037961;28;20448;-60
2024/02/06 04:09:58;;;;;;;8.00;7.80;;;20.50;56.20;;;;;;5036159;28;21054;-62
2024/02/06 04:12:25;;;;;;;8.57;8.37;;;20.50;56.20;;;;;;5027377;28;20489;-60
2024/02/06 04:14:52;;;;;;;8.87;8.57;;;20.50;56.10;;;;;;5018078;28;20442;-62
2024/02/06 04:17:19;;;;;;;8.30;8.10;;;20.50;56.00;;;;;;5017989;28;20468;-63
2024/02/06 04:19:46;;;;;;;9.23;9.03;;;20.50;56.00;;;;;;5022677;28;20429;-61
2024/02/06 04:22:14;;;;;;;8.30;8.10;;;20.50;56.00;;;;;;5037927;28;20496;-63
2024/02/06 04:24:41;;;;;;;8.03;7.83;;;20.50;56.00;;;;;;5037588;28;20488;-61
2024/02/06 04:27:08;;;;;;;8.50;8.20;;;20.50;56.00;;;;;;5037750;28;20473;-62
2024/02/06 04:29:35;;;;;;;8.10;7.90;;;20.50;56.00;;;;;;5034236;28;20503;-63
2024/02/06 04:32:03;;;;;;;8.73;8.43;;;20.50;56.00;;;;;;5024905;28;20496;-62
2024/02/06 04:34:30;;;;;;;8.53;7.90;;;20.50;56.00;;;;;;5037615;28;20448;-62
2024/02/06 04:36:56;;;;;;;7.80;7.70;;;20.50;56.10;;;;;;5037708;28;20473;-62
2024/02/06 04:39:25;;;;;;;8.30;8.10;;;20.50;56.20;;;;;;5036168;28;20480;-63
2024/02/06 04:41:52;;;;;;;8.50;8.30;;;20.50;56.20;;;;;;5014213;28;20516;-62
2024/02/06 04:44:19;;;;;;;7.80;7.60;;;20.50;56.00;;;;;;5014685;28;20442;-62
2024/02/06 04:46:46;;;;;;;8.30;8.10;;;20.50;56.00;;;;;;5014665;28;20500;-62
2024/02/06 04:49:13;;;;;;;8.40;8.20;;;20.50;56.00;;;;;;5014832;28;20513;-62
2024/02/06 04:51:39;;;;;;;7.70;7.60;;;20.50;55.90;;;;;;5034044;28;20492;-62
2024/02/06 04:54:06;;;;;;;7.70;7.50;;;20.50;55.90;;;;;;5034364;28;20860;-62
2024/02/06 04:56:35;;;;;;;7.57;7.47;;;20.50;55.90;;;;;;5034455;28;20480;-63
2024/02/06 04:59:01;;;;;;;6.90;6.80;;;20.50;55.90;;;;;;5034585;28;20440;-62
2024/02/06 05:01:28;;;;;;;7.57;7.43;;;20.50;56.00;;;;;;5033429;28;20499;-62
2024/02/06 05:03:55;;;;;;;8.20;7.53;;;20.50;55.90;;;;;;5034102;28;20452;-61
2024/02/06 05:06:22;;;;;;;9.13;8.83;;;20.50;56.10;;;;;;5034029;28;20950;-60
2024/02/06 05:08:49;;;;;;;8.63;8.40;;;20.60;56.30;;;;;;5024322;28;20556;-62
2024/02/06 05:11:16;;;;;;;8.30;8.10;;;20.60;56.50;;;;;;5014124;28;20732;-61
2024/02/06 05:13:44;;;;;;;8.00;7.90;;;20.60;56.70;;;;;;5014132;28;20493;-61
2024/02/06 05:16:11;;;;;;;9.03;8.83;;;20.60;56.70;;;;;;5014095;28;20504;-61
2024/02/06 05:18:38;;;;;;;8.67;8.37;;;20.60;56.50;;;;;;5021846;28;20472;-63
2024/02/06 05:21:05;;;;;;;8.80;8.60;;;20.60;56.60;;;;;;5033746;28;20489;-62
2024/02/06 05:23:32;;;;;;;9.17;8.87;;;20.60;56.80;;;;;;5033806;28;20465;-62
2024/02/06 05:25:59;;;;;;;9.17;8.87;;;20.60;56.60;;;;;;5033823;28;20489;-63
2024/02/06 05:28:26;;;;;;;8.67;8.47;;;20.60;56.60;;;;;;5027668;28;20528;-63
2024/02/06 05:30:56;;;;;;;9.23;8.90;;;20.60;56.60;;;;;;5013782;28;20496;-61
2024/02/06 05:33:22;;;;;;;9.33;9.13;;;20.60;56.50;;;;;;5013717;28;20446;-63
2024/02/06 05:35:49;;;;;;;9.27;9.07;;;20.60;56.60;;;;;;5013837;28;20473;-64
2024/02/06 05:38:16;;;;;;;8.77;8.57;;;20.60;56.50;;;;;;5017953;28;20947;-63
2024/02/06 05:40:43;;;;;;;8.77;8.57;;;20.60;56.70;;;;;;5033315;28;20484;-64
2024/02/06 05:43:10;;;;;;;9.37;9.17;;;20.60;56.40;;;;;;5033454;28;20480;-64
2024/02/06 05:45:37;;;;;;;9.27;9.00;;;20.60;56.10;;;;;;5033388;28;20447;-64
2024/02/06 05:48:06;;;;;;;9.80;9.50;;;20.70;56.10;;;;;;5016976;28;20446;-62
2024/02/06 05:50:33;;;;;;;9.57;9.27;;;20.70;55.90;;;;;;5013242;28;20517;-64
2024/02/06 05:53:00;;;;;;;10.00;9.70;;;20.70;55.90;;;;;;5012311;28;20481;-63
2024/02/06 05:55:28;;;;;;;9.17;8.87;;;20.70;55.90;;;;;;5013485;28;20930;-63
2024/02/06 05:57:55;;;;;;;10.80;10.13;;;20.70;55.70;;;;;;5027933;28;20441;-65
2024/02/06 06:00:26;;;;;;;12.17;11.57;;;20.70;56.00;;;;;;5032870;28;20465;-65
2024/02/06 06:02:54;;;;;;;11.57;10.63;;;20.80;60.90;;;;;;5033079;28;20789;-66
2024/02/06 06:05:27;;;;;;;11.23;10.73;;;20.90;62.10;;;;;;5020746;28;20937;-65
2024/02/06 06:07:59;;;;;;;10.93;10.33;;;20.90;62.20;;;;;;5012763;28;20445;-65
2024/02/06 06:10:26;;;;;;;10.53;10.10;;;20.90;61.00;;;;;;5012831;28;20518;-65
2024/02/06 06:12:58;;;;;;;10.97;10.37;;;20.90;60.00;;;;;;5011983;28;20486;-64
2024/02/06 06:15:28;;;;;;;11.10;10.30;;;20.90;59.70;;;;;;5012624;28;20465;-64
2024/02/06 06:17:59;;;;;;;9.33;9.00;;;20.90;59.30;;;;;;5012486;28;20958;-65
2024/02/06 06:20:30;;;;;;;11.07;10.43;;;20.90;59.00;;;;;;5012730;28;20977;-64
2024/02/06 06:22:57;;;;;;;12.10;10.93;;;20.90;58.70;;;;;;5012646;28;20525;-66
2024/02/06 06:25:27;;;;;;;10.03;9.57;;;20.90;58.60;;;;;;5012763;28;20466;-64
2024/02/06 06:27:54;;;;;;;10.50;10.20;;;20.90;58.40;;;;;;5012742;28;20446;-64
2024/02/06 06:30:23;;;;;;;9.93;9.53;;;20.90;58.10;;;;;;5012491;28;20488;-64
2024/02/06 06:32:51;;;;;;;10.00;9.60;;;20.90;58.00;;;;;;5011262;28;20974;-64
2024/02/06 06:35:18;;;;;;;10.13;9.53;;;20.90;57.80;;;;;;5012596;28;20486;-64
2024/02/06 06:37:48;;;;;;;10.60;10.00;;;20.90;57.70;;;;;;5012409;28;20452;-64
2024/02/06 06:40:19;;;;;;;10.73;10.07;;;20.90;57.60;;;;;;5012391;28;20508;-66
2024/02/06 06:42:47;;;;;;;9.67;9.27;;;20.90;57.20;;;;;;5010822;28;20455;-64
2024/02/06 06:45:16;;;;;;;9.20;8.90;;;20.90;56.80;;;;;;5012258;28;20457;-64
2024/02/06 06:47:43;;;;;;;9.10;8.70;;;20.90;56.50;;;;;;5012202;28;20457;-65
2024/02/06 06:50:12;;;;;;;9.80;9.50;;;20.90;56.30;;;;;;5012036;28;20509;-65
2024/02/06 06:52:43;;;;;;;9.80;9.43;;;20.90;56.20;;;;;;5012083;28;20557;-63
2024/02/06 06:55:19;;;;;;;9.90;9.50;;;20.90;56.00;;;;;;5012225;28;20884;-64
2024/02/06 06:57:46;;;;;;;10.10;9.60;;;20.90;55.90;;;;;;5012237;28;20438;-63
2024/02/06 07:00:16;;;;;;;8.87;8.67;;;20.90;55.80;;;;;;5010397;28;20876;-63
2024/02/06 07:02:47;;;;;;;9.17;8.90;;;20.90;55.70;;;;;;5012114;28;20454;-64
2024/02/06 07:05:24;;;;;;;9.60;9.20;;;20.90;55.60;;;;;;5010608;28;20422;-66
2024/02/06 07:07:51;;;;;;;9.30;9.03;;;20.90;55.50;;;;;;5012120;28;20458;-64
2024/02/06 07:10:19;;;;;;;11.33;10.43;;;20.90;55.40;;;;;;5011616;28;20520;-66
2024/02/06 07:12:46;;;;;;;9.80;9.50;;;20.90;55.30;;;;;;5012010;28;20478;-64
2024/02/06 07:15:13;;;;;;;9.13;8.73;;;20.90;55.20;;;;;;5011830;28;20470;-64
2024/02/06 07:17:41;;;;;;;9.30;9.00;;;20.90;55.10;;;;;;5011979;28;20924;-65
2024/02/06 07:20:09;;;;;;;9.87;9.50;;;20.90;55.00;;;;;;5011724;28;20497;-64
2024/02/06 07:22:36;;;;;;;9.57;9.30;;;20.90;55.00;;;;;;5011902;28;20478;-64
2024/02/06 07:25:03;;;;;;;9.60;9.30;;;20.90;55.00;;;;;;5011780;28;20480;-65
2024/02/06 07:27:33;;;;;;;10.37;10.07;;;20.90;54.90;;;;;;5011811;28;20458;-64
2024/02/06 07:30:02;;;;;;;11.07;10.77;;;20.90;54.90;;;;;;5011695;28;20486;-64
2024/02/06 07:32:28;;;;;;;11.20;10.70;;;20.90;54.90;;;;;;5011743;28;20520;-66
2024/02/06 07:34:55;;;;;;;9.97;9.70;;;20.90;54.90;;;;;;5011737;28;20474;-64
2024/02/06 07:37:22;;;;;;;10.57;10.17;;;20.90;54.70;;;;;;5011747;28;20477;-64
2024/02/06 07:39:49;;;;;;;10.53;10.23;;;20.90;54.70;;;;;;5011686;28;20875;-65
2024/02/06 07:42:16;;;;;;;10.50;10.20;;;20.90;54.60;;;;;;5011644;28;20517;-64
2024/02/06 07:44:44;;;;;;;10.77;10.30;;;20.90;54.60;;;;;;5011606;28;20473;-65
2024/02/06 07:47:11;;;;;;;10.27;9.87;;;20.90;54.50;;;;;;5011664;28;20497;-65
2024/02/06 07:49:38;;;;;;;10.33;10.03;;;20.90;54.40;;;;;;5011613;28;20517;-64
2024/02/06 07:52:06;;;;;;;10.00;9.80;;;20.90;54.30;;;;;;5011478;28;20504;-66
2024/02/06 07:54:33;;;;;;;9.20;9.00;;;20.90;54.30;;;;;;5011498;28;20508;-64
2024/02/06 07:57:00;;;;;;;9.67;9.30;;;20.90;54.20;;;;;;5011659;28;20941;-64
2024/02/06 07:59:27;;;;;;;9.80;9.50;;;20.90;54.20;;;;;;5011655;28;20875;-64
2024/02/06 08:01:56;;;;;;;9.43;9.17;;;20.90;54.10;;;;;;5011469;28;20489;-65
2024/02/06 08:04:23;;;;;;;9.03;8.83;;;20.90;54.00;;;;;;5011509;28;20529;-65
2024/02/06 08:06:49;;;;;;;8.87;8.60;;;20.90;54.00;;;;;;5011379;28;20477;-64
2024/02/06 08:09:18;;;;;;;9.73;9.43;;;20.90;54.00;;;;;;5011395;28;20509;-64
2024/02/06 08:11:45;;;;;;;9.57;9.37;;;20.90;54.00;;;;;;5011249;28;20227;-64
2024/02/06 08:14:13;;;;;;;10.33;10.10;;;20.90;54.00;;;;;;5011394;28;20790;-64
2024/02/06 08:16:40;;;;;;;10.63;10.43;;;20.90;53.90;;;;;;5013685;28;20485;-64
2024/02/06 08:19:09;;;;;;;10.50;10.10;;;20.90;53.90;;;;;;5014978;28;20456;-64
2024/02/06 08:21:36;;;;;;;10.10;9.80;;;20.90;53.80;;;;;;5014866;28;20468;-65
2024/02/06 08:24:04;;;;;;;10.40;10.10;;;20.90;53.80;;;;;;5014962;28;20438;-64
2024/02/06 08:26:31;;;;;;;10.60;10.37;;;20.90;53.70;;;;;;5014955;28;20477;-64
2024/02/06 08:28:58;;;;;;;9.70;9.50;;;20.90;53.70;;;;;;5014863;28;20485;-65
2024/02/06 08:31:25;;;;;;;10.07;9.87;;;20.90;53.70;;;;;;5014646;28;20524;-64
2024/02/06 08:33:52;;;;;;;10.97;10.73;;;20.90;53.70;;;;;;5014715;28;20516;-65
2024/02/06 08:36:20;;;;;;;10.50;10.20;;;20.90;53.60;;;;;;5014779;28;20477;-64
2024/02/06 08:38:47;;;;;;;9.80;9.60;;;20.90;53.60;;;;;;5014751;28;20801;-64
2024/02/06 08:41:14;;;;;;;10.23;9.93;;;20.90;53.60;;;;;;5014440;28;20468;-64
2024/02/06 08:43:41;;;;;;;11.40;11.10;;;20.90;53.50;;;;;;5014582;28;20470;-64
2024/02/06 08:46:08;;;;;;;11.73;11.43;;;20.90;53.50;;;;;;5014557;28;20470;-65
2024/02/06 08:48:35;;;;;;;11.37;11.07;;;20.90;53.50;;;;;;5014429;28;20954;-64
2024/02/06 08:51:01;;;;;;;10.60;10.30;;;20.90;53.50;;;;;;5014333;28;20539;-64
2024/02/06 08:53:31;;;;;;;11.60;11.20;;;20.90;53.50;;;;;;5014353;28;20473;-64
2024/02/06 08:56:01;;;;;;;11.57;11.17;;;20.90;53.40;;;;;;5014450;28;20473;-64
2024/02/06 08:58:28;;;;;;;10.93;10.60;;;20.90;53.40;;;;;;5014219;28;20449;-66
2024/02/06 09:00:55;;;;;;;10.30;10.00;;;20.90;53.40;;;;;;5014154;28;20500;-64
2024/02/06 09:03:22;;;;;;;10.07;9.77;;;20.90;53.40;;;;;;5014161;28;20446;-65
2024/02/06 09:05:50;;;;;;;10.63;10.33;;;20.80;53.30;;;;;;5014170;28;20485;-64
2024/02/06 09:08:17;;;;;;;11.70;11.40;;;20.90;53.30;;;;;;5014259;28;20446;-65
2024/02/06 09:10:46;;;;;;;10.93;10.70;;;20.90;53.30;;;;;;5013778;28;20521;-64
2024/02/06 09:13:13;;;;;;;10.40;10.10;;;20.90;53.30;;;;;;5014041;28;20446;-64
2024/02/06 09:15:40;;;;;;;11.30;11.00;;;20.90;53.30;;;;;;5014028;28;20450;-65
2024/02/06 09:18:07;;;;;;;11.30;11.00;;;20.90;53.30;;;;;;5013912;28;20512;-64
2024/02/06 09:20:34;;;;;;;11.10;10.90;;;20.80;53.20;;;;;;5013830;28;20489;-65
2024/02/06 09:23:03;;;;;;;11.07;10.77;;;20.90;53.20;;;;;;5013743;28;20473;-64
2024/02/06 09:25:30;;;;;;;10.60;10.30;;;20.90;53.20;;;;;;5013841;28;20453;-64
2024/02/06 09:27:58;;;;;;;10.97;10.67;;;20.90;53.20;;;;;;5013544;28;20939;-64
2024/02/06 09:30:25;;;;;;;10.50;10.30;;;20.90;53.20;;;;;;5013724;28;20513;-64
2024/02/06 09:32:52;;;;;;;9.57;9.23;;;20.90;53.20;;;;;;5013686;28;20492;-64
2024/02/06 09:35:19;;;;;;;10.37;10.17;;;20.90;53.10;;;;;;5013543;28;20485;-64
2024/02/06 09:37:46;;;;;;;10.80;10.27;;;20.80;53.10;;;;;;5013625;28;20873;-64
2024/02/06 09:40:13;;;;;;;10.10;9.90;;;20.90;53.10;;;;;;5013396;28;20489;-65
2024/02/06 09:42:41;;;;;;;10.10;9.80;;;20.80;53.00;;;;;;5013460;28;20474;-64
2024/02/06 09:45:10;;;;;;;11.10;10.80;;;20.90;53.10;;;;;;5013520;28;20481;-64
2024/02/06 09:47:37;;;;;;;10.77;10.50;;;20.90;53.10;;;;;;5013518;28;20473;-65
2024/02/06 09:50:04;;;;;;;10.60;10.30;;;20.90;53.00;;;;;;5013202;28;20513;-64
2024/02/06 09:52:32;;;;;;;10.43;10.13;;;20.80;53.00;;;;;;5013176;28;20489;-65
2024/02/06 09:55:05;;;;;;;11.00;10.70;;;20.90;53.00;;;;;;5013286;28;20881;-66
2024/02/06 09:57:33;;;;;;;11.10;10.80;;;20.90;53.00;;;;;;5013212;28;20442;-64
2024/02/06 10:00:02;;;;;;;10.93;10.73;;;20.80;52.90;;;;;;5013043;28;20473;-64
2024/02/06 10:02:31;;;;;;;10.30;10.10;;;20.90;53.00;;;;;;5013010;28;20902;-63
2024/02/06 10:04:59;;;;;;;11.93;11.60;;;20.80;52.90;;;;;;5013010;28;20442;-65
2024/02/06 10:07:26;;;;;;;12.03;11.63;;;20.80;52.90;;;;;;5013055;28;20469;-64
2024/02/06 10:09:54;;;;;;;10.37;10.17;;;20.80;52.90;;;;;;5012828;28;20474;-64
2024/02/06 10:12:22;;;;;;;11.27;10.97;;;20.80;52.80;;;;;;5012705;28;20506;-64
2024/02/06 10:14:49;;;;;;;10.10;9.90;;;20.80;52.80;;;;;;5013077;28;20442;-64
2024/02/06 10:17:18;;;;;;;9.70;9.40;;;20.80;52.80;;;;;;5012860;28;20477;-66
2024/02/06 10:19:46;;;;;;;9.10;8.90;;;20.90;52.90;;;;;;5012897;28;20529;-64
2024/02/06 10:22:13;;;;;;;9.43;9.23;;;20.90;52.90;;;;;;5012639;28;20885;-64
2024/02/06 10:24:40;;;;;;;9.00;8.80;;;20.80;52.80;;;;;;5012642;28;20488;-65
2024/02/06 10:27:07;;;;;;;8.87;8.67;;;20.80;52.80;;;;;;5012665;28;20473;-64
2024/02/06 10:29:34;;;;;;;9.60;9.40;;;20.80;52.80;;;;;;5012576;28;20481;-64
2024/02/06 10:32:12;;;;;;;10.50;10.20;;;20.80;52.80;;;;;;5012355;28;20544;-64
2024/02/06 10:34:39;;;;;;;9.10;8.90;;;20.80;52.80;;;;;;5012441;28;20469;-64
2024/02/06 10:37:08;;;;;;;9.63;9.43;;;20.80;52.70;;;;;;5012504;28;20477;-64
2024/02/06 10:39:35;;;;;;;9.50;9.30;;;20.80;52.70;;;;;;5011685;28;20480;-65
2024/02/06 10:42:04;;;;;;;11.10;10.80;;;20.80;52.80;;;;;;5012266;28;20521;-64
2024/02/06 10:44:31;;;;;;;11.10;10.80;;;20.80;52.70;;;;;;5012438;28;20532;-65
2024/02/06 10:47:02;;;;;;;10.47;10.17;;;20.80;52.70;;;;;;5012389;28;20442;-65
2024/02/06 10:49:29;;;;;;;10.77;10.47;;;20.80;52.70;;;;;;5012330;28;20469;-65
2024/02/06 10:52:08;;;;;;;10.30;10.00;;;20.80;52.70;;;;;;5012060;28;20524;-64
2024/02/06 10:54:35;;;;;;;11.87;11.57;;;20.80;52.60;;;;;;5012072;28;20961;-64
2024/02/06 10:57:05;;;;;;;11.20;10.90;;;20.80;52.60;;;;;;5012254;28;20481;-64
2024/02/06 10:59:35;;;;;;;10.60;10.40;;;20.80;52.60;;;;;;5012075;28;20516;-66
2024/02/06 11:02:05;;;;;;;10.03;9.83;;;20.80;52.60;;;;;;5012086;28;20464;-63
2024/02/06 11:04:35;;;;;;;10.10;9.90;;;20.80;52.60;;;;;;5012039;28;20555;-66
2024/02/06 11:07:06;;;;;;;10.10;9.90;;;20.80;52.60;;;;;;5012101;28;20474;-64
2024/02/06 11:09:37;;;;;;;10.63;10.33;;;20.80;52.60;;;;;;5011849;28;20445;-64
2024/02/06 11:12:07;;;;;;;11.47;11.17;;;20.80;52.60;;;;;;5011836;28;20485;-63
2024/02/06 11:14:35;;;;;;;11.47;11.17;;;20.80;52.60;;;;;;5012032;28;20450;-64
2024/02/06 11:17:04;;;;;;;10.03;9.73;;;20.80;52.60;;;;;;5011958;28;20438;-64
2024/02/06 11:19:39;;;;;;;10.03;9.83;;;20.80;52.60;;;;;;5011920;28;20604;-66
2024/02/06 11:22:13;;;;;;;10.40;10.20;;;20.80;52.60;;;;;;5011871;28;20514;-65
2024/02/06 11:24:43;;;;;;;10.70;10.40;;;20.80;52.50;;;;;;5011697;28;20846;-64
2024/02/06 11:27:10;;;;;;;10.50;10.30;;;20.80;52.50;;;;;;5011870;28;20492;-64
2024/02/06 11:29:38;;;;;;;11.13;10.80;;;20.80;52.50;;;;;;5011712;28;20934;-65
2024/02/06 11:32:05;;;;;;;11.70;11.40;;;20.80;52.50;;;;;;5011596;28;21040;-64
2024/02/06 11:34:32;;;;;;;12.00;11.70;;;20.80;52.50;;;;;;5011683;28;20484;-64
2024/02/06 11:37:00;;;;;;;11.60;11.20;;;20.80;52.60;;;;;;5011729;28;20445;-65
2024/02/06 11:39:30;;;;;;;11.70;11.40;;;20.80;52.60;;;;;;5011729;28;20938;-64
2024/02/06 11:42:02;;;;;;;11.33;11.03;;;20.80;52.50;;;;;;5011630;28;20489;-64
2024/02/06 11:44:29;;;;;;;11.50;11.10;;;20.80;52.50;;;;;;5011729;28;20473;-64
2024/02/06 11:46:57;;;;;;;10.50;10.30;;;20.80;52.50;;;;;;5011616;28;20442;-64
2024/02/06 11:49:24;;;;;;;11.10;10.90;;;20.80;52.50;;;;;;5011994;28;20476;-64
2024/02/06 11:51:55;;;;;;;12.07;11.77;;;20.80;52.50;;;;;;5015290;28;20517;-66
2024/02/06 11:54:22;;;;;;;11.40;11.10;;;20.80;52.50;;;;;;5015451;28;20535;-64
2024/02/06 11:56:49;;;;;;;10.83;10.60;;;20.80;52.50;;;;;;5015451;28;20444;-64
2024/02/06 11:59:17;;;;;;;10.33;10.03;;;20.80;52.50;;;;;;5015497;28;20448;-64
2024/02/06 12:01:44;;;;;;;10.33;10.13;;;20.80;52.50;;;;;;5015326;28;20485;-64
2024/02/06 12:04:11;;;;;;;11.57;11.27;;;20.80;52.50;;;;;;5015325;28;20445;-64
2024/02/06 12:06:38;;;;;;;11.60;10.97;;;20.80;52.50;;;;;;5015391;28;20482;-65
2024/02/06 12:09:08;;;;;;;10.90;10.60;;;20.80;52.40;;;;;;5015424;28;20429;-64
2024/02/06 12:11:38;;;;;;;11.60;11.30;;;20.80;52.40;;;;;;5050725;22;20488;-70
2024/02/06 12:14:06;;;;;;;11.30;11.00;;;20.80;52.40;;;;;;5046453;28;20514;-70
2024/02/06 12:16:35;;;;;;;12.67;12.27;;;20.80;52.40;;;;;;5043733;28;20472;-70
2024/02/06 12:19:03;;;;;;;12.33;11.97;;;20.80;52.40;;;;;;5042904;28;20469;-70
2024/02/06 12:21:29;;;;;;;12.03;11.73;;;20.80;52.40;;;;;;5044948;28;20795;-70
2024/02/06 12:24:04;;;;;;;12.60;12.30;;;20.80;52.40;;;;;;5046288;28;20969;-70
2024/02/06 12:26:31;;;;;;;13.27;12.70;;;20.80;52.40;;;;;;5043865;28;20493;-69
2024/02/06 12:29:03;;;;;;;12.27;11.97;;;20.80;52.40;;;;;;5042731;28;20476;-70
2024/02/06 12:31:36;;;;;;;12.37;12.07;;;20.80;52.40;;;;;;5044534;28;20832;-70
2024/02/06 12:34:06;;;;;;;12.50;12.20;;;20.80;52.40;;;;;;5046080;28;20490;-69
2024/02/06 12:36:34;;;;;;;11.80;11.50;;;20.80;52.90;;;;;;5043502;28;20443;-69
2024/02/06 12:39:04;;;;;;;12.83;12.33;;;20.80;52.40;;;;;;5042732;28;20535;-69
2024/02/06 12:41:32;;;;;;;12.47;12.17;;;20.80;52.40;;;;;;5044609;28;20877;-69